Weather at Fayette County Airport

Public forecast

Using degrees Fahrenheit for public forecast. Weather courtesy of forecast.io.

Closest aviation weather report (METAR) to Fayette County Airport

Closest report is Wilmington Airpark, 19.2 nm (35.6 km) WSW. Retrieved 2021/05/16 20:54 UTC (34 minutes ago):

KILN 162054Z AUTO 23006KT 10SM OVC060 19/09 A3019 RMK AO2 SLP221 T01940089 56012

Closest aviation forecast (TAF) to Fayette County Airport

Closest forecast is Wilmington Airpark, 19.2 nm (35.6 km) WSW. Retrieved 2021/05/16 18:34 UTC (3 hours ago):

TAF KILN 161732Z 1618/1718 18005KT P6SM SCT060 SCT120 FM170300 13004KT P6SM OVC150 FM171000 11005KT P6SM VCSH OVC070 TEMPO 1711/1715 P6SM -SHRA OVC050 FM171500 10008KT 6SM -SHRA OVC035